Beckwourth, California
Current Conditions -  °F | °C
As of 7:35 AM on Saturday 25 Oct 2014 (Local Time) from KRTS Reporting Station
Clear Clear  
Wind Chill: 55°   Ceiling: Unl
Heat Index: 55°   Visibility: 10mi
Dew Point: 27°   Wind: 22mph
Humidity: 33%   Direction: 210°SSW
Pressure: 29.95"   Gusts: 32mph
Location:  39.82°N, 120.38°W
Report Text: KRTS 251435Z AUTO 21019G28KT 10SM CLR 13/M03 A2995 RMK AO2
Loading
Personal Weather Stations






























Interactive Weather Map
Tropical Storm Tracking
New forecast layout! Learn more

10-Day Weather Forecast

Advertisements
Track Severe Weather on mobile